Terminal Aerodrome Forecast
Issued by NWS

Current Version | Previous Version | Graphics & Text | Print | Product List | Glossary On
Versions: 1 2 3 4 5 6 7 8 9 10 11 12 13 14 15 16 17 18 19 20 21 22 23 24 25 26 27 28 29 30 31 32
000
FTUS41 KRNK 240524 CCA
TAFLWB
TAF COR
KLWB 240524Z 2406/2506 00000KT P6SM SCT005
      TEMPO 2406/2408 1SM BR BKN005
     FM240800 00000KT 1/2SM FG OVC001
     FM241400 VRB03KT P6SM SCT025
     FM241600 28008KT P6SM VCSH BKN050
     FM250200 VRB04KT P6SM SCT060=

USA.gov is the U.S. government's official web portal to all federal, state and local government web resources and services.